createdAt,value
2022-10-03T00:01:00.987Z,4.63
2022-10-03T00:03:37.761Z,6.13
2022-10-03T00:06:15.397Z,3.07
2022-10-03T00:09:04.975Z,7.43
2022-10-03T00:11:43.782Z,8.90
2022-10-03T00:14:19.789Z,5.63
2022-10-03T00:17:04.300Z,4.97
2022-10-03T00:19:45.880Z,7.77
2022-10-03T00:22:23.493Z,6.60
2022-10-03T00:25:03.483Z,6.30
2022-10-03T00:27:38.220Z,5.97
2022-10-03T00:30:18.570Z,7.43
2022-10-03T00:33:06.091Z,7.57
2022-10-03T00:35:51.012Z,8.17
2022-10-03T00:38:37.837Z,6.33
2022-10-03T00:41:23.783Z,10.37
2022-10-03T00:44:29.893Z,8.03
2022-10-03T00:47:25.880Z,8.50
2022-10-03T00:50:20.917Z,6.87
2022-10-03T00:53:10.965Z,7.97
2022-10-03T00:55:52.159Z,7.33
2022-10-03T00:58:39.247Z,7.93
2022-10-03T01:01:24.610Z,7.17
2022-10-03T01:04:05.647Z,8.40
2022-10-03T01:06:43.325Z,5.80
2022-10-03T01:09:31.147Z,7.03
2022-10-03T01:12:15.756Z,4.87
2022-10-03T01:15:01.004Z,7.40
2022-10-03T01:17:40.061Z,5.80
2022-10-03T01:20:19.627Z,5.73
2022-10-03T01:23:27.628Z,7.40
2022-10-03T01:26:09.373Z,11.30
2022-10-03T01:29:05.992Z,7.57
2022-10-03T01:31:45.487Z,5.43
2022-10-03T01:34:23.237Z,8.93
2022-10-03T01:37:06.322Z,8.70
2022-10-03T01:39:43.419Z,7.80
2022-10-03T01:42:18.817Z,6.50
2022-10-03T01:45:05.120Z,6.53
2022-10-03T01:47:42.101Z,7.63
2022-10-03T01:50:19.661Z,4.83
2022-10-03T01:52:54.762Z,4.67
2022-10-03T01:55:31.090Z,4.00
2022-10-03T01:58:03.786Z,6.23
2022-10-03T02:00:44.066Z,4.13
2022-10-03T02:03:18.124Z,6.10
2022-10-03T02:05:55.536Z,4.70
2022-10-03T02:08:36.576Z,5.73
2022-10-03T02:11:07.387Z,7.30
2022-10-03T02:13:46.855Z,5.47
2022-10-03T02:16:30.332Z,4.43
2022-10-03T02:19:06.345Z,6.40
2022-10-03T02:21:35.531Z,5.00
2022-10-03T02:24:18.898Z,3.87
2022-10-03T02:27:14.196Z,3.93
2022-10-03T02:30:07.143Z,3.63
2022-10-03T02:33:04.751Z,7.67
2022-10-03T02:36:05.285Z,4.67
2022-10-03T02:39:03.732Z,5.57
2022-10-03T02:41:52.434Z,4.83
2022-10-03T02:44:50.727Z,6.33
2022-10-03T02:48:30.271Z,5.33
2022-10-03T02:51:33.477Z,4.70
2022-10-03T02:54:37.599Z,5.53
2022-10-03T02:57:39.023Z,8.83
2022-10-03T03:00:12.970Z,9.20
2022-10-03T03:03:16.947Z,7.10
2022-10-03T03:06:20.149Z,11.77
2022-10-03T03:09:23.327Z,10.63
2022-10-03T03:12:18.108Z,8.17
2022-10-03T03:15:31.908Z,12.03
2022-10-03T03:18:07.691Z,8.17
2022-10-03T03:20:57.942Z,11.97
2022-10-03T03:23:41.573Z,8.80
2022-10-03T03:26:35.604Z,11.57
2022-10-03T03:29:15.720Z,9.67
2022-10-03T03:31:54.602Z,14.10
2022-10-03T03:34:32.612Z,20.77
2022-10-03T03:37:08.327Z,13.20
2022-10-03T03:39:51.488Z,10.80
2022-10-03T03:42:43.104Z,21.17
2022-10-03T03:45:32.205Z,14.30
2022-10-03T03:48:15.554Z,18.97
2022-10-03T03:50:52.950Z,25.17
2022-10-03T03:54:00.599Z,39.00
2022-10-03T03:56:46.620Z,32.53
2022-10-03T03:59:31.169Z,18.83
2022-10-03T04:02:09.639Z,24.80
2022-10-03T04:04:52.061Z,29.93
2022-10-03T04:07:30.729Z,16.27
2022-10-03T04:10:16.939Z,21.30
2022-10-03T04:13:04.873Z,31.17
2022-10-03T04:15:55.085Z,19.47
2022-10-03T04:18:56.955Z,25.43
2022-10-03T04:21:50.527Z,31.13
2022-10-03T04:24:43.859Z,18.87
2022-10-03T04:27:30.053Z,25.80
2022-10-03T04:30:07.514Z,37.43
2022-10-03T04:32:52.404Z,17.70
2022-10-03T04:35:48.948Z,27.87
2022-10-03T04:38:32.303Z,23.93
2022-10-03T04:41:12.363Z,17.20
2022-10-03T04:43:45.514Z,12.53
2022-10-03T04:46:27.173Z,16.10
2022-10-03T04:49:04.044Z,17.07
2022-10-03T04:51:45.754Z,12.93
2022-10-03T04:54:25.985Z,11.40
2022-10-03T04:57:01.729Z,9.63
2022-10-03T04:59:42.404Z,8.20
2022-10-03T05:02:24.522Z,15.60
2022-10-03T05:05:11.075Z,10.30
2022-10-03T05:07:46.922Z,10.23
2022-10-03T05:10:48.407Z,12.97
2022-10-03T05:13:30.341Z,15.30
2022-10-03T05:16:08.943Z,11.77
2022-10-03T05:18:42.644Z,19.17
2022-10-03T05:21:16.023Z,15.17
2022-10-03T05:24:02.726Z,14.77
2022-10-03T05:26:45.502Z,13.07
2022-10-03T05:29:26.116Z,11.93
2022-10-03T05:32:09.595Z,11.47
2022-10-03T05:34:52.324Z,12.87
2022-10-03T05:37:41.466Z,12.17
2022-10-03T05:40:18.181Z,13.53
2022-10-03T05:43:06.523Z,12.57
2022-10-03T05:45:49.907Z,17.67
2022-10-03T05:48:32.994Z,14.57
2022-10-03T05:51:43.277Z,12.37
2022-10-03T05:54:30.975Z,10.47
2022-10-03T05:57:20.611Z,10.67
2022-10-03T06:00:18.382Z,11.13
2022-10-03T06:03:13.496Z,11.17
2022-10-03T06:06:05.299Z,10.33
2022-10-03T06:08:56.844Z,9.77
2022-10-03T06:11:47.783Z,9.17
2022-10-03T06:14:44.607Z,6.83
2022-10-03T06:17:43.437Z,6.87
2022-10-03T06:20:41.504Z,13.00
2022-10-03T06:23:43.200Z,9.67
2022-10-03T06:26:44.863Z,12.37
2022-10-03T06:29:43.826Z,9.40
2022-10-03T06:32:28.387Z,10.13
2022-10-03T06:35:30.221Z,11.07
2022-10-03T06:38:33.097Z,11.20
2022-10-03T06:41:34.336Z,14.53
2022-10-03T06:44:16.782Z,10.83
2022-10-03T06:47:13.491Z,16.07
2022-10-03T06:50:05.180Z,12.43
2022-10-03T06:52:51.954Z,18.17
2022-10-03T06:56:05.249Z,11.50
2022-10-03T06:58:59.157Z,11.60
2022-10-03T07:02:11.594Z,10.73
2022-10-03T07:05:17.849Z,14.80
2022-10-03T07:08:24.691Z,13.57
2022-10-03T07:11:07.750Z,14.20
2022-10-03T07:13:54.212Z,14.17
2022-10-03T07:16:50.671Z,15.17
2022-10-03T07:19:54.179Z,15.93
2022-10-03T07:22:43.747Z,21.33
2022-10-03T07:25:47.454Z,19.03
2022-10-03T07:29:12.011Z,17.07
2022-10-03T07:31:58.328Z,19.30
2022-10-03T07:35:27.067Z,22.80
2022-10-03T07:38:48.581Z,29.33
2022-10-03T07:41:45.772Z,24.27
2022-10-03T07:44:47.225Z,28.93
2022-10-03T07:47:59.855Z,26.97
2022-10-03T07:50:51.200Z,28.73
2022-10-03T07:53:58.734Z,26.60
2022-10-03T07:56:44.423Z,27.90
2022-10-03T07:59:43.852Z,23.40
2022-10-03T08:02:40.145Z,26.60
2022-10-03T08:05:25.133Z,26.17
2022-10-03T08:08:29.005Z,22.73
2022-10-03T08:11:42.680Z,25.57
2022-10-03T08:14:20.246Z,24.47
2022-10-03T08:17:26.807Z,24.63
2022-10-03T08:20:21.311Z,25.63
2022-10-03T08:23:03.198Z,27.20
2022-10-03T08:25:48.563Z,26.90
2022-10-03T08:28:38.836Z,28.73
2022-10-03T08:31:43.739Z,22.73
2022-10-03T08:34:38.966Z,26.07
2022-10-03T08:37:26.427Z,28.47
2022-10-03T08:40:22.419Z,27.57
2022-10-03T08:43:30.949Z,22.53
2022-10-03T08:46:17.337Z,22.73
2022-10-03T08:48:59.888Z,22.50
2022-10-03T08:51:55.326Z,28.53
2022-10-03T08:54:52.751Z,22.00
2022-10-03T08:57:38.527Z,22.87
2022-10-03T09:00:15.299Z,26.03
2022-10-03T09:03:33.431Z,27.67
2022-10-03T09:07:16.560Z,27.57
2022-10-03T09:10:25.438Z,39.50
2022-10-03T09:13:22.908Z,30.87
2022-10-03T09:16:18.782Z,34.03
2022-10-03T09:19:03.673Z,29.47
2022-10-03T09:22:06.544Z,21.87
2022-10-03T09:25:02.137Z,29.63
2022-10-03T09:28:09.802Z,25.97
2022-10-03T09:30:54.727Z,17.17
2022-10-03T09:34:15.047Z,18.03
2022-10-03T09:37:21.319Z,21.10
2022-10-03T09:40:18.970Z,22.60
2022-10-03T09:43:28.295Z,17.27
2022-10-03T09:46:19.219Z,20.73
2022-10-03T09:49:18.915Z,20.57
2022-10-03T09:52:00.563Z,18.20
2022-10-03T09:54:55.052Z,23.17
2022-10-03T09:57:59.516Z,22.60
2022-10-03T10:00:33.122Z,19.20
2022-10-03T10:03:51.825Z,16.10
2022-10-03T10:06:42.806Z,21.90
2022-10-03T10:09:41.806Z,37.63
2022-10-03T10:12:47.917Z,24.23
2022-10-03T10:15:36.934Z,17.33
2022-10-03T10:18:33.355Z,30.17
2022-10-03T10:21:43.011Z,19.53
2022-10-03T10:24:46.695Z,18.13
2022-10-03T10:27:55.780Z,19.30
2022-10-03T10:30:40.044Z,20.30
2022-10-03T10:33:42.542Z,18.67
2022-10-03T10:36:47.753Z,16.43
2022-10-03T10:39:51.190Z,17.63
2022-10-03T10:42:51.017Z,16.50
2022-10-03T10:45:45.653Z,16.20
2022-10-03T10:48:46.979Z,13.20
2022-10-03T10:51:45.278Z,18.60
2022-10-03T10:54:46.249Z,15.10
2022-10-03T10:57:24.212Z,17.43
2022-10-03T11:00:12.224Z,18.97
2022-10-03T11:03:33.915Z,14.17
2022-10-03T11:06:58.653Z,13.70
2022-10-03T11:10:08.399Z,12.33
2022-10-03T11:13:21.922Z,16.57
2022-10-03T11:16:44.096Z,16.10
2022-10-03T11:19:51.523Z,13.40
2022-10-03T11:23:09.331Z,19.03
2022-10-03T11:26:15.249Z,20.27
2022-10-03T11:29:15.828Z,16.97
2022-10-03T11:32:16.811Z,15.83
2022-10-03T11:35:29.166Z,14.00
2022-10-03T11:38:04.079Z,15.50
2022-10-03T11:40:42.226Z,12.73
2022-10-03T11:43:52.713Z,15.40
2022-10-03T11:46:37.361Z,11.40
2022-10-03T11:49:16.183Z,20.33
2022-10-03T11:51:53.546Z,15.83
2022-10-03T11:54:31.592Z,20.07
2022-10-03T11:57:02.872Z,18.10
2022-10-03T11:59:37.428Z,14.67
2022-10-03T12:02:14.211Z,13.13
2022-10-03T12:04:52.172Z,8.80
2022-10-03T12:07:58.424Z,16.07
2022-10-03T12:10:39.898Z,14.00
2022-10-03T12:13:16.692Z,11.37
2022-10-03T12:15:48.652Z,9.20
2022-10-03T12:18:26.003Z,14.60
2022-10-03T12:21:13.165Z,15.33
2022-10-03T12:24:08.075Z,12.47
2022-10-03T12:26:49.484Z,11.27
2022-10-03T12:29:21.018Z,10.77
2022-10-03T12:32:02.494Z,14.60
2022-10-03T12:34:40.590Z,9.37
2022-10-03T12:37:27.569Z,13.30
2022-10-03T12:40:04.453Z,16.20
2022-10-03T12:42:38.756Z,12.80
2022-10-03T12:45:17.909Z,7.30
2022-10-03T12:47:59.734Z,13.17
2022-10-03T12:50:43.851Z,13.40
2022-10-03T12:53:33.020Z,16.73
2022-10-03T12:56:07.759Z,11.90
2022-10-03T12:58:51.732Z,8.23
2022-10-03T13:01:29.525Z,9.63
2022-10-03T13:04:02.419Z,9.17
2022-10-03T13:07:02.378Z,11.80
2022-10-03T13:09:42.245Z,9.07
2022-10-03T13:12:26.830Z,8.63
2022-10-03T13:15:42.132Z,8.83
2022-10-03T13:18:50.982Z,10.70
2022-10-03T13:21:44.498Z,11.37
2022-10-03T13:24:22.237Z,17.63
2022-10-03T13:27:00.433Z,12.57
2022-10-03T13:29:34.668Z,14.30
2022-10-03T13:32:18.332Z,9.23
2022-10-03T13:35:23.214Z,8.63
2022-10-03T13:38:12.196Z,13.13
2022-10-03T13:40:46.359Z,10.67
2022-10-03T13:43:21.253Z,10.50
2022-10-03T13:45:51.354Z,9.17
2022-10-03T13:48:23.901Z,7.63
2022-10-03T13:51:01.844Z,12.53
2022-10-03T13:53:53.729Z,6.47
2022-10-03T13:56:37.978Z,10.37
2022-10-03T13:59:13.925Z,5.70
2022-10-03T14:01:51.727Z,11.27
2022-10-03T14:04:48.540Z,8.67
2022-10-03T14:07:25.079Z,9.10
2022-10-03T14:10:13.934Z,8.17
2022-10-03T14:13:04.796Z,9.83
2022-10-03T14:15:45.221Z,11.97
2022-10-03T14:18:25.280Z,7.17
2022-10-03T14:21:36.045Z,7.80
2022-10-03T14:24:16.813Z,6.87
2022-10-03T14:26:52.968Z,6.93
2022-10-03T14:29:27.787Z,10.07
2022-10-03T14:32:02.728Z,7.67
2022-10-03T14:34:48.011Z,7.47
2022-10-03T14:37:26.697Z,8.33
2022-10-03T14:40:13.535Z,6.03
2022-10-03T14:42:57.947Z,5.40
2022-10-03T14:45:30.067Z,6.30
2022-10-03T14:48:05.489Z,6.50
2022-10-03T14:50:34.605Z,7.60
2022-10-03T14:53:06.807Z,10.67
2022-10-03T14:55:44.958Z,6.30
2022-10-03T14:58:18.837Z,8.97
2022-10-03T15:00:49.694Z,9.13
2022-10-03T15:03:25.103Z,8.10
2022-10-03T15:06:01.617Z,7.03
2022-10-03T15:08:36.112Z,7.33
2022-10-03T15:11:07.612Z,7.17
2022-10-03T15:13:42.570Z,7.43
2022-10-03T15:16:16.002Z,8.70
2022-10-03T15:18:57.354Z,10.03
2022-10-03T15:21:27.287Z,7.50
2022-10-03T15:23:58.245Z,8.50
2022-10-03T15:26:31.421Z,6.43
2022-10-03T15:29:03.807Z,9.37
2022-10-03T15:31:36.072Z,7.80
2022-10-03T15:34:08.286Z,5.50
2022-10-03T15:36:39.452Z,8.13
2022-10-03T15:39:19.914Z,7.60
2022-10-03T15:41:55.736Z,5.17
2022-10-03T15:44:32.958Z,6.50
2022-10-03T15:47:07.093Z,12.33
2022-10-03T15:49:39.409Z,7.03
2022-10-03T15:52:15.823Z,9.57
2022-10-03T15:54:47.873Z,5.17
2022-10-03T15:57:25.419Z,11.43
2022-10-03T16:00:02.051Z,8.17
2022-10-03T16:02:40.446Z,7.77
2022-10-03T16:05:19.575Z,11.37
2022-10-03T16:07:58.337Z,7.97
2022-10-03T16:10:29.569Z,8.53
2022-10-03T16:13:07.867Z,7.53
2022-10-03T16:15:55.650Z,5.97
2022-10-03T16:18:48.452Z,14.97
2022-10-03T16:21:29.238Z,13.37
2022-10-03T16:24:00.580Z,9.13
2022-10-03T16:26:31.530Z,12.97
2022-10-03T16:29:13.197Z,6.63
2022-10-03T16:31:47.263Z,11.20
2022-10-03T16:34:17.772Z,9.77
2022-10-03T16:36:47.628Z,7.63
2022-10-03T16:39:22.095Z,17.47
2022-10-03T16:41:54.285Z,7.83
2022-10-03T16:44:29.024Z,8.87
2022-10-03T16:47:02.991Z,8.30
2022-10-03T16:50:01.512Z,12.23
2022-10-03T16:52:34.602Z,15.50
2022-10-03T16:55:06.926Z,12.10
2022-10-03T16:57:45.648Z,11.60
2022-10-03T17:00:21.426Z,10.00
2022-10-03T17:02:49.853Z,10.80
2022-10-03T17:05:19.128Z,9.07
2022-10-03T17:07:51.837Z,8.40
2022-10-03T17:10:35.126Z,7.77
2022-10-03T17:13:08.356Z,10.93
2022-10-03T17:15:48.537Z,12.23
2022-10-03T17:18:26.160Z,13.13
2022-10-03T17:20:57.211Z,9.37
2022-10-03T17:23:35.799Z,10.57
2022-10-03T17:26:10.107Z,15.70
2022-10-03T17:28:44.530Z,13.77
2022-10-03T17:31:30.438Z,10.37
2022-10-03T17:34:10.461Z,12.77
2022-10-03T17:37:16.274Z,12.00
2022-10-03T17:39:55.099Z,9.27
2022-10-03T17:42:38.412Z,12.10
2022-10-03T17:45:19.936Z,15.73
2022-10-03T17:47:56.778Z,15.33
2022-10-03T17:50:31.409Z,11.70
2022-10-03T17:53:01.581Z,15.13
2022-10-03T17:55:32.787Z,17.10
2022-10-03T17:58:05.826Z,19.17
2022-10-03T18:00:56.554Z,22.23
2022-10-03T18:03:30.988Z,27.60
2022-10-03T18:06:04.324Z,19.77
2022-10-03T18:08:37.722Z,15.63
2022-10-03T18:11:06.690Z,20.07
2022-10-03T18:13:39.607Z,19.80
2022-10-03T18:16:21.472Z,19.13
2022-10-03T18:19:21.798Z,17.13
2022-10-03T18:22:02.272Z,11.43
2022-10-03T18:24:44.410Z,16.70
2022-10-03T18:27:42.458Z,16.10
2022-10-03T18:30:17.547Z,15.43
2022-10-03T18:32:47.721Z,10.77
2022-10-03T18:35:22.202Z,14.93
2022-10-03T18:38:02.700Z,16.13
2022-10-03T18:40:34.696Z,17.60
2022-10-03T18:43:05.924Z,18.90
2022-10-03T18:45:44.805Z,14.13
2022-10-03T18:48:19.190Z,15.90
2022-10-03T18:51:11.385Z,10.80
2022-10-03T18:53:44.652Z,14.47
2022-10-03T18:56:14.472Z,17.03
2022-10-03T18:58:46.632Z,16.60
2022-10-03T19:01:20.484Z,22.23
2022-10-03T19:03:58.160Z,12.90
2022-10-03T19:06:30.423Z,15.43
2022-10-03T19:09:03.251Z,22.70
2022-10-03T19:11:34.687Z,21.60
2022-10-03T19:14:09.026Z,17.30
2022-10-03T19:16:59.310Z,25.90
2022-10-03T19:19:33.665Z,27.63
2022-10-03T19:22:06.737Z,25.87
2022-10-03T19:24:57.169Z,20.33
2022-10-03T19:27:30.365Z,14.40
2022-10-03T19:30:00.132Z,16.40
2022-10-03T19:32:32.053Z,16.53
2022-10-03T19:35:03.919Z,17.73
2022-10-03T19:37:45.511Z,19.40
2022-10-03T19:40:16.771Z,11.27
2022-10-03T19:42:49.504Z,12.20
2022-10-03T19:45:19.982Z,12.03
2022-10-03T19:47:53.355Z,14.57
2022-10-03T19:50:26.792Z,11.90
2022-10-03T19:52:57.059Z,11.87
2022-10-03T19:55:31.011Z,7.33
2022-10-03T19:58:02.304Z,13.57
2022-10-03T20:00:33.049Z,12.53
2022-10-03T20:03:14.724Z,12.37
2022-10-03T20:05:50.696Z,11.40
2022-10-03T20:08:32.151Z,13.13
2022-10-03T20:11:33.411Z,15.60
2022-10-03T20:14:02.613Z,13.37
2022-10-03T20:16:35.804Z,17.10
2022-10-03T20:19:09.924Z,20.00
2022-10-03T20:21:38.345Z,19.43
2022-10-03T20:24:14.283Z,20.93
2022-10-03T20:26:48.133Z,15.77
2022-10-03T20:29:26.187Z,15.80
2022-10-03T20:32:00.241Z,12.83
2022-10-03T20:34:28.499Z,17.33
2022-10-03T20:37:08.267Z,13.53
2022-10-03T20:39:41.627Z,11.10
2022-10-03T20:42:15.326Z,14.40
2022-10-03T20:45:02.437Z,14.73
2022-10-03T20:47:52.261Z,11.83
2022-10-03T20:50:25.846Z,12.30
2022-10-03T20:52:55.643Z,16.43
2022-10-03T20:55:27.711Z,13.30
2022-10-03T20:58:11.175Z,14.77
2022-10-03T21:00:46.310Z,15.83
2022-10-03T21:03:26.312Z,13.90
2022-10-03T21:05:57.187Z,14.60
2022-10-03T21:08:28.465Z,11.83
2022-10-03T21:11:00.146Z,16.37
2022-10-03T21:13:33.577Z,18.40
2022-10-03T21:16:03.889Z,13.57
2022-10-03T21:18:34.941Z,15.10
2022-10-03T21:21:08.755Z,17.10
2022-10-03T21:23:42.615Z,11.50
2022-10-03T21:26:13.083Z,14.17
2022-10-03T21:28:40.995Z,11.40
2022-10-03T21:31:22.607Z,10.93
2022-10-03T21:34:00.986Z,12.17
2022-10-03T21:36:49.316Z,8.67
2022-10-03T21:39:22.000Z,12.27
2022-10-03T21:42:06.090Z,11.13
2022-10-03T21:44:57.302Z,15.63
2022-10-03T21:47:43.853Z,11.83
2022-10-03T21:50:18.820Z,9.50
2022-10-03T21:53:10.177Z,13.30
2022-10-03T21:55:53.059Z,9.27
2022-10-03T21:58:49.853Z,11.13
2022-10-03T22:01:27.057Z,12.47
2022-10-03T22:04:00.799Z,13.33
2022-10-03T22:06:33.684Z,19.13
2022-10-03T22:09:03.274Z,14.57
2022-10-03T22:11:43.286Z,10.87
2022-10-03T22:14:22.484Z,13.20
2022-10-03T22:16:57.652Z,13.27
2022-10-03T22:19:34.522Z,16.73
2022-10-03T22:22:22.840Z,14.73
2022-10-03T22:25:11.602Z,15.33
2022-10-03T22:27:48.528Z,13.97
2022-10-03T22:30:19.806Z,10.83
2022-10-03T22:33:02.193Z,12.87
2022-10-03T22:35:49.268Z,13.17
2022-10-03T22:38:18.516Z,18.67
2022-10-03T22:40:51.473Z,22.67
2022-10-03T22:43:20.869Z,15.47
2022-10-03T22:45:52.331Z,21.87
2022-10-03T22:48:25.167Z,27.63
2022-10-03T22:50:54.967Z,19.57
2022-10-03T22:53:27.085Z,21.33
2022-10-03T22:56:17.748Z,20.23
2022-10-03T22:58:45.864Z,34.90
2022-10-03T23:01:15.243Z,31.03
2022-10-03T23:03:43.313Z,19.07
2022-10-03T23:06:31.967Z,17.60
2022-10-03T23:09:09.691Z,16.27
2022-10-03T23:11:40.107Z,17.93
2022-10-03T23:14:16.261Z,20.53
2022-10-03T23:16:54.055Z,23.67
2022-10-03T23:19:40.923Z,15.93
2022-10-03T23:22:15.109Z,23.97
2022-10-03T23:24:47.691Z,28.30
2022-10-03T23:27:50.281Z,24.73
2022-10-03T23:30:55.257Z,15.90
2022-10-03T23:33:53.155Z,17.63
2022-10-03T23:36:25.326Z,17.00
2022-10-03T23:39:01.221Z,11.93
2022-10-03T23:41:58.775Z,13.50
2022-10-03T23:44:43.635Z,10.77
2022-10-03T23:47:18.223Z,10.40
2022-10-03T23:49:51.483Z,11.17
2022-10-03T23:52:24.331Z,13.03
2022-10-03T23:54:55.777Z,10.37
2022-10-03T23:57:28.199Z,10.63
2022-10-03T23:59:56.507Z,9.33
